Montreal / Aéroparc Île Perrot

CSP6 · Quebec, Canada

METAR history CSP6 · Montreal / Aéroparc Île Perrot

Below you see METARs of the last few days. Select a year to browse through older METARs, from the year 2007 onwards.

March 4, 2024

Time Code Weather Temp. Visibility Ceiling Wind METAR/SPECI
18:00
V
5 °C 30 mi - 040° 040° 11 kt METAR CYUL 042300Z 04011KT 30SM FEW250 05/02 A3022 RMK CI2 SLP238
17:00
V
8 °C 30 mi 25,000 ft 030° 030° 11 kt METAR CYUL 042200Z 03011KT 30SM BKN250 08/03 A3022 RMK CI6 SLP238
16:00
V
9 °C 30 mi 25,000 ft 040° 040° 12 kt METAR CYUL 042100Z 04012KT 30SM FEW020 FEW060 BKN250 09/04 A3023 RMK CU1SC1CI7 CU TR SC TR SLP242
15:00
V
9 °C 30 mi 25,000 ft 030° 030° 12 kt METAR CYUL 042000Z 03012KT 30SM FEW020 FEW050 BKN250 09/05 A3026 RMK CU1SC1CI7 CU TR SC TR SLP250
14:00
V
7 °C 30 mi 5,000 ft 030° 030° 11 kt METAR CYUL 041900Z 03011KT 30SM FEW015 BKN050 OVC250 07/04 A3028 RMK CU1SC7CI1 CU TR SLP258
13:13
V
7 °C 30 mi 5,200 ft 010° 010° 9 kt METAR CYUL 041813Z 01009KT 30SM FEW015 OVC052 07/04 A3030 RMK SC1SC7 SLP263
13:00
M
7 °C 30 mi 1,400 ft 020° 020° 9 kt METAR CYUL 041800Z 02009KT 350V070 30SM BKN014 OVC052 07/05 A3030 RMK SC7SC1 SLP264
12:00
M
8 °C 15 mi 1,100 ft 070° 070° 8 kt METAR CYUL 041700Z 07008KT 15SM OVC011 08/06 A3032 RMK ST8 SLP270
11:44
M
7 °C 15 mi 1,000 ft 070° 070° 7 kt METAR CYUL 041644Z 07007KT 15SM OVC010 07/06 A3033 RMK ST8 SLP274
11:00
I
7 °C 12 mi 900 ft 100° 100° 5 kt METAR CYUL 041600Z 10005KT 12SM OVC009 07/06 A3034 RMK ST8 SLP278
10:00
I
6 °C 3 mi 600 ft 070° 070° 5 kt METAR CYUL 041500Z 07005KT 3SM BR BKN006 OVC018 06/06 A3034 RMK SF5SC3 SLP279
09:25
I
5 °C 2½ mi 600 ft 090° 090° 4 kt METAR CYUL 041425Z 09004KT 2 1/2SM -DZ BR BKN006 OVC015 05/04 A3035 RMK SF6SC2 SLP282
09:00
I
3 °C 5 mi 600 ft 050° 050° 6 kt METAR CYUL 041400Z 05006KT 5SM -DZ BR OVC006 03/03 A3036 RMK ST8 SLP285
08:53
I
3 °C 6 mi 700 ft 050° 050° 8 kt METAR CYUL 041353Z 05008KT 6SM -DZ BR OVC007 03/03 A3036 RMK ST8 SLP285
08:22
I
3 °C 6 mi 900 ft 030° 030° 7 kt METAR CYUL 041322Z 03007KT 6SM BR OVC009 03/02 A3037 RMK ST8 SLP289
08:00
M
3 °C 4 mi 1,400 ft 010° 010° 6 kt METAR CYUL 041300Z 01006KT 4SM BR OVC014 03/03 A3038 RMK ST8 SLP291
07:13
M
2 °C 6 mi 1,400 ft 040° 040° 5 kt METAR CYUL 041213Z 04005KT 6SM BR OVC014 02/02 A3037 RMK ST8 SLP287
07:00
M
2 °C 6 mi 1,500 ft 030° 030° 7 kt METAR CYUL 041200Z 03007KT 6SM BR OVC015 02/01 A3036 RMK ST8 SLP285
06:17
I
2 °C 6 mi 800 ft 020° 020° 7 kt METAR CYUL 041117Z 02007KT 6SM -DZ BR OVC008 02/01 A3037 RMK ST8 SLP287
05:00
M
1 °C 15 mi 1,300 ft 020° 020° 5 kt METAR CYUL 041000Z 02005KT 15SM BKN013 BKN022 01/01 A3036 RMK SF4SC3 SLP284
04:00
M
1 °C 15 mi 1,500 ft 330° 330° 3 kt METAR CYUL 040900Z 33003KT 320V020 15SM OVC015 01/01 A3034 RMK ST8 SLP278
03:00
M
1 °C 10 mi 1,400 ft 030° 030° 2 kt METAR CYUL 040800Z 03002KT 10SM BKN014 BKN022 01/00 A3034 RMK ST6SC1 SLP276
02:52
M
1 °C 10 mi 1,400 ft 360° 360° 3 kt METAR CYUL 040752Z 36003KT 10SM BKN014 BKN022 01/00 A3034 RMK ST6SC1 SLP277
02:33
V
1 °C 6 mi 25,000 ft 350° 350° 3 kt METAR CYUL 040733Z 35003KT 6SM BR SCT013 BKN250 01/00 A3034 RMK ST4CI2 SLP277
02:00
I
0 °C 3 mi 1,200 ft 030° 030° 5 kt METAR CYUL 040700Z 03005KT 3SM R06L/3500V4000FT/N R06R/2600V6000FT/U BR SCT003 BKN012 OVC020 00/00 A3034 RMK FG2SF1ST4SC1 SLP276
01:52
L
0 °C 1½ mi 200 ft 020° 020° 5 kt METAR CYUL 040652Z 02005KT 1 1/2SM R06L/2600V4000FT/U R06R/2600V3000FT/N BR VV002 00/M00 A3034 RMK FG8 SLP277
01:08
L
1 °C ⅝ mi 100 ft 070° 070° 3 kt METAR CYUL 040608Z 07003KT 5/8SM R06L/1600V2200FT/N R06R/2000V2600FT/N BR VV001 01/00 A3033 RMK FG8 SLP275
00:18
L
1 °C ⅝ mi 200 ft 150° 150° 3 kt METAR CYUL 040518Z 15003KT 5/8SM R06L/1400V1800FT/N R06R/1200V1400FT/N BR VV002 01/00 A3033 RMK FG8 SLP273
00:00
L
1 °C ½ mi 100 ft 150° 150° 3 kt METAR CYUL 040500Z 15003KT 1/2SM R06L/1000V1600FT/U R06R/0900V1000FT/N FG VV001 01/00 A3032 RMK FG8 SLP272

March 3, 2024

Time Code Weather Temp. Visibility Ceiling Wind METAR/SPECI
23:36
L
1 °C ½ mi 100 ft Var Var 2 kt METAR CYUL 040436Z VRB02KT 1/2SM R06L/0800V0900FT/N R06R/1100V1200FT/N FG VV001 01/00 A3032 RMK FG8 SLP271
23:00
L
1 °C ¾ mi 100 ft 210° 210° 4 kt METAR CYUL 040400Z 21004KT 3/4SM R06L/1200V1600FT/N R06R/1200V1600FT/N BR VV001 01/00 A3032 RMK FG8 SLP271
22:00
L
1 °C ¾ mi 100 ft 230° 230° 4 kt METAR CYUL 040300Z 23004KT 3/4SM R24R/0800V1200FT/N R24L/1600V2000FT/N BR BKN001 01/00 A3031 RMK FG6SF1 SLP269
21:56
L
1 °C ¾ mi 100 ft 230° 230° 4 kt METAR CYUL 040256Z 23004KT 3/4SM R24R/1000V1400FT/N R24L/P6000FT/D BR BKN001 01/00 A3032 RMK FG6SF1 SLP270
21:39
M
2 °C 4 mi - 230° 230° 4 kt METAR CYUL 040239Z 23004KT 4SM R24R/4000VP6000FT/D BR SCT250 02/01 A3032 RMK FG2CI1 CI TR VIS 2 SE QUAD SLP270
21:00
V
2 °C 12 mi - 210° 210° 3 kt METAR CYUL 040200Z 21003KT 12SM FEW060 02/01 A3031 RMK SC1 SC TR FG OVR STLAWR SLP266
20:00
V
4 °C 15 mi - 360° 360° 0 kt METAR CYUL 040100Z 00000KT 15SM FEW058 04/02 A3029 RMK SC1 SC TR SLP261
19:00
V
5 °C 15 mi - 160° 160° 3 kt METAR CYUL 040000Z 16003KT 120V200 15SM FEW058 05/02 A3029 RMK SC1 SC TR SLP259
18:00
V
7 °C 15 mi - Var Var 4 kt METAR CYUL 032300Z VRB04KT 15SM FEW057 SCT250 07/02 A3028 RMK SC1CI3 CC ASOCTD SLP256
17:00
V
9 °C 30 mi 25,000 ft 010° 010° 3 kt METAR CYUL 032200Z 01003KT 320V020 30SM FEW055 BKN250 09/01 A3026 RMK SC1CC4 CONTRAILS SLP249
16:00
V
9 °C 30 mi - 340° 340° 3 kt METAR CYUL 032100Z 34003KT 30SM FEW025 SCT055 SCT220 09/02 A3025 RMK CU1SC3CC1 CU TR CC TR SLP248
15:00
V
9 °C 15 mi - 010° 010° 3 kt METAR CYUL 032000Z 01003KT 15SM FEW025 SCT055 09/02 A3026 RMK CU1SC4 CU TR SLP250
14:00
V
7 °C 15 mi 5,500 ft 020° 020° 5 kt METAR CYUL 031900Z 02005KT 15SM FEW020 BKN055 07/02 A3026 RMK SC1SC7 SC TR SLP250
13:00
V
7 °C 15 mi 5,500 ft 350° 350° 6 kt METAR CYUL 031800Z 35006KT 15SM FEW015 FEW032 OVC055 07/03 A3028 RMK SC1SC1SC8 SC TR SC TR SLP258
12:00
M
6 °C 15 mi 2,800 ft 010° 010° 7 kt METAR CYUL 031700Z 01007KT 15SM FEW010 OVC028 06/04 A3029 RMK SF1SC7 SLP261
11:24
M
5 °C 8 mi 2,700 ft 010° 010° 8 kt METAR CYUL 031624Z 01008KT 8SM SCT009 OVC027 05/04 A3029 RMK SF3SC5 SLP259
11:00
I
5 °C 4 mi 700 ft 020° 020° 8 kt METAR CYUL 031600Z 02008KT 4SM BR BKN007 OVC022 05/04 A3028 RMK SF6SC2 SLP258
10:46
M
5 °C 4 mi 2,100 ft 020° 020° 8 kt METAR CYUL 031546Z 02008KT 4SM BR SCT006 OVC021 05/04 A3028 RMK SF4SC4 SLP258
10:00
I
4 °C 3 mi 500 ft 030° 030° 8 kt METAR CYUL 031500Z 03008KT 3SM BR BKN005 OVC017 04/04 A3027 RMK SF7SC1 SLP254
09:52
I
4 °C 3 mi 500 ft 020° 020° 9 kt METAR CYUL 031452Z 02009KT 3SM BR BKN005 OVC017 04/04 A3027 RMK SF7SC1 SLP254
09:16
L
4 °C 2½ mi 400 ft 020° 020° 8 kt METAR CYUL 031416Z 02008KT 2 1/2SM BR OVC004 04/03 A3027 RMK ST8 SLP253
09:00
L
3 °C 2½ mi 300 ft 020° 020° 8 kt METAR CYUL 031400Z 02008KT 2 1/2SM BR OVC003 03/03 A3026 RMK ST8 SLP252
08:00
L
3 °C 2 mi 200 ft 030° 030° 6 kt METAR CYUL 031300Z 03006KT 2SM BR OVC002 03/02 A3026 RMK ST8 SLP249
07:08
L
2 °C 2 mi 200 ft 360° 360° 5 kt METAR CYUL 031208Z 36005KT 2SM BR OVC002 02/02 A3025 RMK ST8 SLP247
06:00
I
2 °C 3 mi 800 ft 360° 360° 7 kt METAR CYUL 031100Z 36007KT 3SM BR OVC008 02/02 A3023 RMK ST8 SLP240
05:00
L
2 °C 3 mi 200 ft 020° 020° 8 kt METAR CYUL 031000Z 02008KT 3SM -DZ BR BKN002 OVC013 02/02 A3021 RMK SF6SC2 SLP234
04:00
L
2 °C 1 mi 200 ft 010° 010° 6 kt METAR CYUL 030900Z 01006KT 1SM R06L/3000V3500FT/N R06R/3000V3500FT/N -DZ BR OVC002 02/01 A3021 RMK ST8 SLP232
03:00
L
2 °C 3 mi 200 ft 010° 010° 7 kt METAR CYUL 030800Z 01007KT 3SM -DZ BR OVC002 02/01 A3020 RMK ST8 SLP229
02:33
L
2 °C 3 mi 200 ft 020° 020° 6 kt METAR CYUL 030733Z 02006KT 3SM -DZ BR OVC002 02/01 A3019 RMK ST8 SLP228
02:00
M
2 °C 6 mi 1,200 ft 020° 020° 8 kt METAR CYUL 030700Z 02008KT 6SM -DZ BR SCT005 BKN012 OVC025 02/01 A3019 RMK SF4SF2SC2 SLP227
01:36
M
2 °C 4 mi 1,100 ft 020° 020° 7 kt METAR CYUL 030636Z 02007KT 4SM -DZ BR FEW005 BKN011 OVC023 02/01 A3020 RMK SF1SF4SC3 SLP230
01:00
I
2 °C 3 mi 900 ft 010° 010° 6 kt METAR CYUL 030600Z 01006KT 3SM -DZ BR BKN009 OVC020 02/02 A3021 RMK SF7SC1 SLP233
00:00
L
2 °C 3 mi 400 ft 030° 030° 6 kt METAR CYUL 030500Z 03006KT 3SM -DZ BR BKN004 OVC019 02/02 A3020 RMK SF6SC2 SLP230

March 2, 2024

Time Code Weather Temp. Visibility Ceiling Wind METAR/SPECI
23:53
L
2 °C 3 mi 400 ft 040° 040° 5 kt METAR CYUL 030453Z 04005KT 3SM -DZ BR BKN004 OVC020 02/02 A3020 RMK SF6SC2 SLP230
23:34
I
2 °C 3 mi 600 ft 050° 050° 6 kt METAR CYUL 030434Z 05006KT 3SM -DZ DRDU BKN006 OVC025 02/02 A3020 RMK SF5SC3 SLP231
23:00
L
2 °C 3 mi 300 ft 010° 010° 8 kt METAR CYUL 030400Z 01008KT 3SM -DZ BR OVC003 02/02 A3021 RMK ST8 SLP233
22:30
L
2 °C 3 mi 200 ft 360° 360° 7 kt METAR CYUL 030330Z 36007KT 3SM -DZ BR OVC002 02/02 A3021 RMK ST8 SLP235
22:27
L
3 °C 3 mi 300 ft 350° 350° 7 kt METAR CYUL 030327Z 35007KT 3SM -DZ BR OVC003 03/02 A3021 RMK ST8 SLP235
22:10
I
3 °C 2½ mi 500 ft 020° 020° 7 kt METAR CYUL 030310Z 02007KT 2 1/2SM -DZ BR BKN005 OVC018 03/02 A3021 RMK ST6SC2 SLP235
22:00
I
3 °C 2½ mi 1,700 ft 040° 040° 5 kt METAR CYUL 030300Z 04005KT 2 1/2SM -DZ BR SCT005 OVC017 03/02 A3021 RMK SF3SC5 SLP234
21:25
I
3 °C 2 mi 4,000 ft 020° 020° 4 kt METAR CYUL 030225Z 02004KT 2SM -DZ BR FEW005 OVC040 03/03 A3021 RMK SF1SC8 SF TR SLP235
21:08
I
3 °C 2 mi 3,500 ft 020° 020° 3 kt METAR CYUL 030208Z 02003KT 2SM -DZ BR SCT014 OVC035 03/02 A3022 RMK ST3SC5 SLP236
20:30
M
4 °C 5 mi 1,700 ft 040° 040° 2 kt METAR CYUL 030130Z 04002KT 5SM -RA BR FEW005 BKN017 OVC030 04/03 A3021 RMK SF1SC6SC2 SF TR SLP235
20:00
M
4 °C 5 mi 2,400 ft 130° 130° 3 kt METAR CYUL 030100Z 13003KT 5SM -RA BR BKN024 OVC050 04/03 A3021 RMK SC6SC2 SLP234
19:00
V
4 °C 5 mi 7,000 ft 090° 090° 4 kt METAR CYUL 030000Z 09004KT 5SM -RA BR FEW025 OVC070 04/03 A3022 RMK SC2AS6 SLP236
18:12
M
3 °C 5 mi 1,500 ft 060° 060° 2 kt METAR CYUL 022312Z 06002KT 5SM -RA BR BKN015 OVC020 03/02 A3023 RMK SC6SC2 SLP240
18:00
M
4 °C 5 mi 1,400 ft 050° 050° 3 kt METAR CYUL 022300Z 05003KT 5SM -RA BR BKN014 OVC021 04/02 A3023 RMK SC6SC2 SLP240
17:00
M
3 °C 3 mi 1,200 ft 080° 080° 3 kt METAR CYUL 022200Z 08003KT 3SM -RA BR BKN012 OVC018 03/02 A3022 RMK SC7SC1 SLP238
16:34
I
3 °C 2½ mi 1,000 ft 100° 100° 3 kt METAR CYUL 022134Z 10003KT 2 1/2SM -DZ BR OVC010 03/03 A3023 RMK ST8 SLP240
16:19
I
3 °C 5 mi 900 ft 110° 110° 4 kt METAR CYUL 022119Z 11004KT 5SM -DZ BR OVC009 03/03 A3023 RMK ST8 SLP241
16:00
I
3 °C 2½ mi 800 ft 110° 110° 3 kt METAR CYUL 022100Z 11003KT 2 1/2SM -DZ BR OVC008 03/03 A3023 RMK ST8 SLP240
15:36
I
3 °C 2½ mi 700 ft 120° 120° 4 kt METAR CYUL 022036Z 12004KT 2 1/2SM -DZ BR FEW004 OVC007 03/02 A3023 RMK ST2ST6 SLP241
15:24
L
3 °C 2 mi 400 ft 130° 130° 4 kt METAR CYUL 022024Z 13004KT 2SM -DZ BR BKN004 OVC008 03/02 A3023 RMK SF5ST3 SLP242
15:00
L
3 °C 1¾ mi 300 ft 140° 140° 5 kt METAR CYUL 022000Z 14005KT 1 3/4SM -DZ BR BKN003 OVC008 03/02 A3024 RMK SF6ST2 SLP243
14:48
L
3 °C 1¾ mi 400 ft 140° 140° 4 kt METAR CYUL 021948Z 14004KT 1 3/4SM -DZ BR BKN004 OVC009 03/02 A3024 RMK SF5ST3 SLP244
14:00
I
3 °C 2 mi 1,100 ft 130° 130° 5 kt METAR CYUL 021900Z 13005KT 2SM -DZ BR OVC011 03/01 A3024 RMK ST8 SLP244
13:51
I
3 °C 2½ mi 1,100 ft 140° 140° 6 kt METAR CYUL 021851Z 14006KT 2 1/2SM -DZ OVC011 03/01 A3024 RMK ST8 SLP245
13:31
M
3 °C 15 mi 1,300 ft 160° 160° 6 kt METAR CYUL 021831Z 16006KT 15SM -RA OVC013 03/00 A3025 RMK SC8 SLP247
13:00
M
4 °C 15 mi 2,400 ft 150° 150° 5 kt METAR CYUL 021800Z 15005KT 15SM -RA OVC024 04/M00 A3025 RMK SC8 SLP247
12:00
M
4 °C 15 mi 3,000 ft 150° 150° 4 kt METAR CYUL 021700Z 15004KT 15SM -RA OVC030 04/M01 A3027 RMK SC8 SLP253
11:00
M
4 °C 15 mi 2,800 ft 140° 140° 8 kt METAR CYUL 021600Z 14008KT 15SM -RA OVC028 04/M03 A3027 RMK SC8 SLP253
10:41
V
4 °C 15 mi 3,100 ft 150° 150° 8 kt METAR CYUL 021541Z 15008KT 15SM -RA BKN031 OVC040 04/M03 A3027 RMK SC7SC1 SLP255
10:00
V
1 °C 15 mi 5,300 ft 020° 020° 4 kt METAR CYUL 021500Z 02004KT 15SM SCT033 BKN053 01/M03 A3028 RMK SC3SC4 SLP258
09:00
V
-1 °C 15 mi 10,000 ft 360° 360° 4 kt METAR CYUL 021400Z 36004KT 15SM FEW055 BKN100 OVC160 M01/M05 A3030 RMK SC2AC5AC1 SLP264
08:00
V
-2 °C 15 mi 16,000 ft 350° 350° 3 kt METAR CYUL 021300Z 35003KT 15SM BKN160 BKN250 M02/M05 A3030 RMK AC6CI1 SLP264
07:00
V
-5 °C 15 mi 19,000 ft 030° 030° 3 kt METAR CYUL 021200Z 03003KT 15SM BKN190 BKN250 M05/M07 A3030 RMK AC6CI1 SLP265
06:00
V
-6 °C 15 mi - 010° 010° 3 kt METAR CYUL 021100Z 01003KT 15SM FEW190 FEW250 M06/M08 A3031 RMK AC2CI1 CI TR SLP267
05:00
V
-5 °C 15 mi - 010° 010° 3 kt METAR CYUL 021000Z 01003KT 15SM FEW240 M05/M07 A3031 RMK CI1 CI TR SLP267
04:00
V
-2 °C 15 mi - Var Var 2 kt METAR CYUL 020900Z VRB02KT 15SM SKC M02/M06 A3031 RMK SLP267
03:00
V
-3 °C 15 mi - 360° 360° 0 kt METAR CYUL 020800Z 00000KT 15SM FEW250 M03/M07 A3030 RMK CI1 CI TR SLP264
02:00
V
-4 °C 15 mi - 360° 360° 0 kt METAR CYUL 020700Z 00000KT 15SM FEW250 M04/M06 A3031 RMK CI1 CI TR SLP268
01:00
V
-4 °C 15 mi - 360° 360° 0 kt METAR CYUL 020600Z 00000KT 15SM FEW250 M04/M07 A3032 RMK CI1 CI TR SLP271